sensor_id;sensor_type;location;lat;lon;timestamp;pressure;altitude;pressure_sealevel;temperature;humidity
47716;BME280;33476;50.984;3.538;2022-08-14T00:00:16;101087.88;;;25.25;38.90
47716;BME280;33476;50.984;3.538;2022-08-14T00:02:42;101080.00;;;25.23;38.87
47716;BME280;33476;50.984;3.538;2022-08-14T00:05:09;101076.16;;;25.17;38.99
47716;BME280;33476;50.984;3.538;2022-08-14T00:07:36;101065.75;;;25.14;38.92
47716;BME280;33476;50.984;3.538;2022-08-14T00:10:03;101065.44;;;25.09;39.20
47716;BME280;33476;50.984;3.538;2022-08-14T00:12:30;101067.91;;;25.03;39.38
47716;BME280;33476;50.984;3.538;2022-08-14T00:14:56;101061.31;;;24.97;39.12
47716;BME280;33476;50.984;3.538;2022-08-14T00:17:22;101062.50;;;24.94;39.59
47716;BME280;33476;50.984;3.538;2022-08-14T00:19:48;101057.47;;;24.91;39.27
47716;BME280;33476;50.984;3.538;2022-08-14T00:22:14;101053.81;;;24.92;39.40
47716;BME280;33476;50.984;3.538;2022-08-14T00:24:43;101049.78;;;24.88;39.79
47716;BME280;33476;50.984;3.538;2022-08-14T00:27:09;101044.22;;;24.82;39.83
47716;BME280;33476;50.984;3.538;2022-08-14T00:29:34;101043.41;;;24.81;40.22
47716;BME280;33476;50.984;3.538;2022-08-14T00:31:59;101047.56;;;24.76;39.74
47716;BME280;33476;50.984;3.538;2022-08-14T00:34:25;101037.88;;;24.75;39.76
47716;BME280;33476;50.984;3.538;2022-08-14T00:36:50;101041.06;;;24.78;39.81
47716;BME280;33476;50.984;3.538;2022-08-14T00:39:16;101041.69;;;24.72;40.14
47716;BME280;33476;50.984;3.538;2022-08-14T00:41:41;101035.50;;;24.72;40.03
47716;BME280;33476;50.984;3.538;2022-08-14T00:44:07;101037.00;;;24.66;40.22
47716;BME280;33476;50.984;3.538;2022-08-14T00:46:32;101034.97;;;24.60;40.14
47716;BME280;33476;50.984;3.538;2022-08-14T00:48:57;101034.25;;;24.50;40.04
47716;BME280;33476;50.984;3.538;2022-08-14T00:51:23;101029.75;;;24.50;40.06
47716;BME280;33476;50.984;3.538;2022-08-14T00:53:48;101024.91;;;24.54;40.49
47716;BME280;33476;50.984;3.538;2022-08-14T00:56:15;101029.75;;;24.50;40.04
47716;BME280;33476;50.984;3.538;2022-08-14T00:58:40;101028.53;;;24.45;40.26
47716;BME280;33476;50.984;3.538;2022-08-14T01:01:10;101023.81;;;24.38;40.21
47716;BME280;33476;50.984;3.538;2022-08-14T01:03:38;101027.31;;;24.39;40.14
47716;BME280;33476;50.984;3.538;2022-08-14T01:06:08;101022.81;;;24.40;40.32
47716;BME280;33476;50.984;3.538;2022-08-14T01:08:34;101016.69;;;24.47;39.50
47716;BME280;33476;50.984;3.538;2022-08-14T01:11:02;101009.84;;;24.45;39.79
47716;BME280;33476;50.984;3.538;2022-08-14T01:13:31;101012.00;;;24.41;40.33
47716;BME280;33476;50.984;3.538;2022-08-14T01:16:00;101009.97;;;24.35;40.18
47716;BME280;33476;50.984;3.538;2022-08-14T01:18:27;101006.72;;;24.31;40.07
47716;BME280;33476;50.984;3.538;2022-08-14T01:21:12;101001.38;;;24.31;40.62
47716;BME280;33476;50.984;3.538;2022-08-14T01:23:48;100998.66;;;24.23;40.45
47716;BME280;33476;50.984;3.538;2022-08-14T01:26:19;100993.16;;;24.17;40.64
47716;BME280;33476;50.984;3.538;2022-08-14T01:28:46;100990.25;;;24.10;40.61
47716;BME280;33476;50.984;3.538;2022-08-14T01:31:17;100988.59;;;24.09;40.68
47716;BME280;33476;50.984;3.538;2022-08-14T01:33:46;100988.44;;;24.10;40.45
47716;BME280;33476;50.984;3.538;2022-08-14T01:36:13;100991.00;;;24.20;40.44
47716;BME280;33476;50.984;3.538;2022-08-14T01:38:41;100985.66;;;24.20;40.49
47716;BME280;33476;50.984;3.538;2022-08-14T01:41:12;100981.16;;;24.21;40.77
47716;BME280;33476;50.984;3.538;2022-08-14T01:43:53;100977.66;;;24.20;40.42
47716;BME280;33476;50.984;3.538;2022-08-14T01:46:22;100977.47;;;24.22;40.52
47716;BME280;33476;50.984;3.538;2022-08-14T01:48:48;100978.16;;;24.24;40.56
47716;BME280;33476;50.984;3.538;2022-08-14T01:51:18;100977.81;;;24.19;40.36
47716;BME280;33476;50.984;3.538;2022-08-14T01:53:59;100975.09;;;24.10;40.45
47716;BME280;33476;50.984;3.538;2022-08-14T01:56:28;100978.44;;;24.13;40.41
47716;BME280;33476;50.984;3.538;2022-08-14T01:59:01;100975.75;;;24.13;40.54
47716;BME280;33476;50.984;3.538;2022-08-14T02:01:26;100971.03;;;24.06;40.64
47716;BME280;33476;50.984;3.538;2022-08-14T02:03:52;100966.03;;;24.03;40.87
47716;BME280;33476;50.984;3.538;2022-08-14T02:06:18;100967.50;;;23.98;40.79
47716;BME280;33476;50.984;3.538;2022-08-14T02:08:44;100964.16;;;23.96;40.69
47716;BME280;33476;50.984;3.538;2022-08-14T02:11:10;100957.31;;;23.93;40.74
47716;BME280;33476;50.984;3.538;2022-08-14T02:13:49;100952.13;;;23.92;40.81
47716;BME280;33476;50.984;3.538;2022-08-14T02:16:22;100955.25;;;23.87;40.39
47716;BME280;33476;50.984;3.538;2022-08-14T02:18:53;100955.09;;;23.89;40.67
47716;BME280;33476;50.984;3.538;2022-08-14T02:21:19;100963.44;;;23.86;40.76
47716;BME280;33476;50.984;3.538;2022-08-14T02:23:46;100960.38;;;23.80;40.45
47716;BME280;33476;50.984;3.538;2022-08-14T02:26:35;100953.16;;;23.73;40.80
47716;BME280;33476;50.984;3.538;2022-08-14T02:29:07;100953.31;;;23.71;40.49
47716;BME280;33476;50.984;3.538;2022-08-14T02:31:35;100952.16;;;23.74;40.53
47716;BME280;33476;50.984;3.538;2022-08-14T02:34:06;100950.31;;;23.74;39.95
47716;BME280;33476;50.984;3.538;2022-08-14T02:36:34;100951.69;;;23.78;40.11
47716;BME280;33476;50.984;3.538;2022-08-14T02:38:59;100952.38;;;23.80;40.38
47716;BME280;33476;50.984;3.538;2022-08-14T02:41:25;100954.19;;;23.80;40.32
47716;BME280;33476;50.984;3.538;2022-08-14T02:43:50;100954.81;;;23.74;40.16
47716;BME280;33476;50.984;3.538;2022-08-14T02:46:16;100945.16;;;23.73;40.48
47716;BME280;33476;50.984;3.538;2022-08-14T02:48:42;100947.31;;;23.69;40.45
47716;BME280;33476;50.984;3.538;2022-08-14T02:51:10;100942.59;;;23.63;40.78
47716;BME280;33476;50.984;3.538;2022-08-14T02:53:42;100938.16;;;23.54;40.46
47716;BME280;33476;50.984;3.538;2022-08-14T02:56:10;100932.81;;;23.54;40.71
47716;BME280;33476;50.984;3.538;2022-08-14T02:58:43;100940.59;;;23.47;40.89
47716;BME280;33476;50.984;3.538;2022-08-14T03:01:11;100941.75;;;23.45;40.72
47716;BME280;33476;50.984;3.538;2022-08-14T03:03:37;100950.06;;;23.42;40.96
47716;BME280;33476;50.984;3.538;2022-08-14T03:06:03;100943.84;;;23.41;40.97
47716;BME280;33476;50.984;3.538;2022-08-14T03:08:30;100945.84;;;23.39;41.02
47716;BME280;33476;50.984;3.538;2022-08-14T03:11:01;100936.50;;;23.35;41.23
47716;BME280;33476;50.984;3.538;2022-08-14T03:13:32;100936.78;;;23.32;41.16
47716;BME280;33476;50.984;3.538;2022-08-14T03:15:59;100937.56;;;23.24;41.31
47716;BME280;33476;50.984;3.538;2022-08-14T03:18:26;100935.88;;;23.23;41.40
47716;BME280;33476;50.984;3.538;2022-08-14T03:20:51;100941.06;;;23.25;41.43
47716;BME280;33476;50.984;3.538;2022-08-14T03:23:18;100936.19;;;23.20;41.33
47716;BME280;33476;50.984;3.538;2022-08-14T03:25:45;100932.84;;;23.18;41.70
47716;BME280;33476;50.984;3.538;2022-08-14T03:28:11;100925.16;;;23.15;41.53
47716;BME280;33476;50.984;3.538;2022-08-14T03:30:37;100927.59;;;23.09;41.47
47716;BME280;33476;50.984;3.538;2022-08-14T03:33:03;100923.13;;;23.09;41.95
47716;BME280;33476;50.984;3.538;2022-08-14T03:35:29;100924.22;;;23.07;41.95
47716;BME280;33476;50.984;3.538;2022-08-14T03:38:03;100921.03;;;23.03;42.18
47716;BME280;33476;50.984;3.538;2022-08-14T03:40:29;100916.00;;;23.00;41.99
47716;BME280;33476;50.984;3.538;2022-08-14T03:42:54;100904.66;;;22.98;42.20
47716;BME280;33476;50.984;3.538;2022-08-14T03:45:19;100910.00;;;22.98;42.09
47716;BME280;33476;50.984;3.538;2022-08-14T03:47:45;100910.16;;;22.96;42.24
47716;BME280;33476;50.984;3.538;2022-08-14T03:50:10;100901.50;;;22.94;42.16
47716;BME280;33476;50.984;3.538;2022-08-14T03:52:37;100904.75;;;22.88;42.34
47716;BME280;33476;50.984;3.538;2022-08-14T03:55:11;100901.13;;;22.80;42.60
47716;BME280;33476;50.984;3.538;2022-08-14T03:57:38;100899.97;;;22.82;42.42
47716;BME280;33476;50.984;3.538;2022-08-14T04:00:07;100900.28;;;22.79;42.37
47716;BME280;33476;50.984;3.538;2022-08-14T04:02:39;100901.28;;;22.78;42.47
47716;BME280;33476;50.984;3.538;2022-08-14T04:05:06;100899.63;;;22.77;42.56
47716;BME280;33476;50.984;3.538;2022-08-14T04:07:32;100889.25;;;22.74;42.71
47716;BME280;33476;50.984;3.538;2022-08-14T04:09:59;100888.03;;;22.68;42.77
47716;BME280;33476;50.984;3.538;2022-08-14T04:12:24;100891.97;;;22.64;43.08
47716;BME280;33476;50.984;3.538;2022-08-14T04:14:50;100883.75;;;22.58;43.02
47716;BME280;33476;50.984;3.538;2022-08-14T04:17:17;100879.56;;;22.55;43.07
47716;BME280;33476;50.984;3.538;2022-08-14T04:19:43;100883.53;;;22.51;43.35
47716;BME280;33476;50.984;3.538;2022-08-14T04:22:09;100871.34;;;22.49;43.62
47716;BME280;33476;50.984;3.538;2022-08-14T04:24:35;100867.31;;;22.45;43.49
47716;BME280;33476;50.984;3.538;2022-08-14T04:27:01;100864.25;;;22.39;43.72
47716;BME280;33476;50.984;3.538;2022-08-14T04:29:26;100876.03;;;22.37;43.99
47716;BME280;33476;50.984;3.538;2022-08-14T04:31:51;100862.88;;;22.35;43.98
47716;BME280;33476;50.984;3.538;2022-08-14T04:34:17;100869.88;;;22.36;44.21
47716;BME280;33476;50.984;3.538;2022-08-14T04:36:42;100868.47;;;22.32;44.08
47716;BME280;33476;50.984;3.538;2022-08-14T04:39:26;100868.47;;;22.32;44.15
47716;BME280;33476;50.984;3.538;2022-08-14T04:42:10;100867.66;;;22.32;44.26
47716;BME280;33476;50.984;3.538;2022-08-14T04:44:54;100863.63;;;22.28;44.18
47716;BME280;33476;50.984;3.538;2022-08-14T04:47:19;100865.44;;;22.27;44.52
47716;BME280;33476;50.984;3.538;2022-08-14T04:50:04;100871.03;;;22.24;44.46
47716;BME280;33476;50.984;3.538;2022-08-14T04:52:30;100872.34;;;22.20;44.84
47716;BME280;33476;50.984;3.538;2022-08-14T04:54:55;100874.84;;;22.22;44.94
47716;BME280;33476;50.984;3.538;2022-08-14T04:57:21;100877.09;;;22.26;44.94
47716;BME280;33476;50.984;3.538;2022-08-14T04:59:47;100874.53;;;22.25;44.84
47716;BME280;33476;50.984;3.538;2022-08-14T05:02:12;100871.19;;;22.23;44.95
47716;BME280;33476;50.984;3.538;2022-08-14T05:04:38;100877.66;;;22.20;44.90
47716;BME280;33476;50.984;3.538;2022-08-14T05:07:03;100873.44;;;22.18;45.09
47716;BME280;33476;50.984;3.538;2022-08-14T05:09:29;100877.81;;;22.19;45.06
47716;BME280;33476;50.984;3.538;2022-08-14T05:11:54;100873.03;;;22.22;45.27
47716;BME280;33476;50.984;3.538;2022-08-14T05:16:46;100874.16;;;22.20;45.25
47716;BME280;33476;50.984;3.538;2022-08-14T05:21:39;100880.31;;;22.20;45.38
47716;BME280;33476;50.984;3.538;2022-08-14T05:24:06;100877.66;;;22.20;45.45
47716;BME280;33476;50.984;3.538;2022-08-14T05:26:32;100879.50;;;22.20;45.61
47716;BME280;33476;50.984;3.538;2022-08-14T05:28:58;100876.66;;;22.21;45.54
47716;BME280;33476;50.984;3.538;2022-08-14T05:31:23;100884.06;;;22.27;45.81
47716;BME280;33476;50.984;3.538;2022-08-14T05:33:49;100886.00;;;22.35;45.53
47716;BME280;33476;50.984;3.538;2022-08-14T05:36:14;100885.00;;;22.36;45.58
47716;BME280;33476;50.984;3.538;2022-08-14T05:38:42;100884.84;;;22.37;45.73
47716;BME280;33476;50.984;3.538;2022-08-14T05:41:10;100880.78;;;22.43;45.85
47716;BME280;33476;50.984;3.538;2022-08-14T05:43:37;100883.66;;;22.50;45.73
47716;BME280;33476;50.984;3.538;2022-08-14T05:46:03;100885.28;;;22.60;45.47
47716;BME280;33476;50.984;3.538;2022-08-14T05:48:29;100886.66;;;22.64;45.66
47716;BME280;33476;50.984;3.538;2022-08-14T05:50:55;100883.25;;;22.72;45.56
47716;BME280;33476;50.984;3.538;2022-08-14T05:53:22;100886.16;;;22.79;45.56
47716;BME280;33476;50.984;3.538;2022-08-14T05:55:48;100874.94;;;22.85;45.42
47716;BME280;33476;50.984;3.538;2022-08-14T05:58:13;100871.78;;;22.89;45.23
47716;BME280;33476;50.984;3.538;2022-08-14T06:00:41;100876.38;;;22.97;45.00
47716;BME280;33476;50.984;3.538;2022-08-14T06:03:12;100878.25;;;23.05;45.03
47716;BME280;33476;50.984;3.538;2022-08-14T06:05:39;100872.00;;;23.14;44.52
47716;BME280;33476;50.984;3.538;2022-08-14T06:08:12;100870.09;;;23.24;44.35
47716;BME280;33476;50.984;3.538;2022-08-14T06:10:39;100877.03;;;23.35;44.44
47716;BME280;33476;50.984;3.538;2022-08-14T06:13:04;100870.75;;;23.44;44.27
47716;BME280;33476;50.984;3.538;2022-08-14T06:15:30;100869.81;;;23.53;43.82
47716;BME280;33476;50.984;3.538;2022-08-14T06:17:55;100874.94;;;23.64;43.40
47716;BME280;33476;50.984;3.538;2022-08-14T06:20:21;100864.31;;;23.72;43.40
47716;BME280;33476;50.984;3.538;2022-08-14T06:22:47;100857.72;;;23.85;43.31
47716;BME280;33476;50.984;3.538;2022-08-14T06:25:14;100852.28;;;23.94;42.46
47716;BME280;33476;50.984;3.538;2022-08-14T06:27:45;100860.97;;;24.04;42.35
47716;BME280;33476;50.984;3.538;2022-08-14T06:30:14;100860.38;;;24.19;41.92
47716;BME280;33476;50.984;3.538;2022-08-14T06:32:40;100851.81;;;24.33;42.02
47716;BME280;33476;50.984;3.538;2022-08-14T06:35:06;100859.66;;;24.43;41.61
47716;BME280;33476;50.984;3.538;2022-08-14T06:37:46;100857.84;;;24.51;41.33
47716;BME280;33476;50.984;3.538;2022-08-14T06:40:14;100846.03;;;24.70;41.19
47716;BME280;33476;50.984;3.538;2022-08-14T06:42:40;100843.03;;;24.81;41.00
47716;BME280;33476;50.984;3.538;2022-08-14T06:45:07;100842.56;;;24.94;41.34
47716;BME280;33476;50.984;3.538;2022-08-14T06:47:34;100845.09;;;25.04;40.92
47716;BME280;33476;50.984;3.538;2022-08-14T06:50:00;100853.28;;;25.18;41.13
47716;BME280;33476;50.984;3.538;2022-08-14T06:52:25;100844.91;;;25.30;40.95
47716;BME280;33476;50.984;3.538;2022-08-14T06:54:51;100848.09;;;25.41;40.01
47716;BME280;33476;50.984;3.538;2022-08-14T06:57:16;100859.75;;;25.57;39.39
47716;BME280;33476;50.984;3.538;2022-08-14T06:59:41;100856.56;;;25.69;38.51
47716;BME280;33476;50.984;3.538;2022-08-14T07:02:07;100858.56;;;25.84;37.99
47716;BME280;33476;50.984;3.538;2022-08-14T07:04:51;100851.00;;;25.95;37.61
47716;BME280;33476;50.984;3.538;2022-08-14T07:07:38;100848.09;;;26.05;37.59
47716;BME280;33476;50.984;3.538;2022-08-14T07:10:04;100846.06;;;26.15;37.19
47716;BME280;33476;50.984;3.538;2022-08-14T07:12:31;100841.34;;;26.25;36.98
47716;BME280;33476;50.984;3.538;2022-08-14T07:14:57;100832.91;;;26.37;36.61
47716;BME280;33476;50.984;3.538;2022-08-14T07:17:22;100833.47;;;26.55;37.48
47716;BME280;33476;50.984;3.538;2022-08-14T07:19:47;100819.34;;;26.69;36.87
47716;BME280;33476;50.984;3.538;2022-08-14T07:22:13;100827.06;;;26.87;35.80
47716;BME280;33476;50.984;3.538;2022-08-14T07:24:38;100812.44;;;26.98;35.27
47716;BME280;33476;50.984;3.538;2022-08-14T07:27:04;100817.91;;;27.04;35.43
47716;BME280;33476;50.984;3.538;2022-08-14T07:29:29;100813.50;;;27.11;35.03
47716;BME280;33476;50.984;3.538;2022-08-14T07:31:55;100825.16;;;27.19;35.09
47716;BME280;33476;50.984;3.538;2022-08-14T07:34:20;100821.56;;;27.26;35.96
47716;BME280;33476;50.984;3.538;2022-08-14T07:36:45;100821.69;;;27.33;36.08
47716;BME280;33476;50.984;3.538;2022-08-14T07:39:12;100812.44;;;27.35;35.51
47716;BME280;33476;50.984;3.538;2022-08-14T07:41:38;100810.88;;;27.41;35.42
47716;BME280;33476;50.984;3.538;2022-08-14T07:44:03;100819.38;;;27.44;35.04
47716;BME280;33476;50.984;3.538;2022-08-14T07:46:28;100821.03;;;27.46;35.48
47716;BME280;33476;50.984;3.538;2022-08-14T07:48:54;100820.50;;;27.50;35.48
47716;BME280;33476;50.984;3.538;2022-08-14T07:51:21;100820.94;;;27.54;35.16
47716;BME280;33476;50.984;3.538;2022-08-14T07:53:46;100813.00;;;27.60;34.41
47716;BME280;33476;50.984;3.538;2022-08-14T07:56:12;100813.78;;;27.69;34.36
47716;BME280;33476;50.984;3.538;2022-08-14T07:58:37;100817.84;;;27.80;33.99
47716;BME280;33476;50.984;3.538;2022-08-14T08:01:05;100821.53;;;27.93;34.46
47716;BME280;33476;50.984;3.538;2022-08-14T08:03:32;100821.53;;;28.08;34.94
47716;BME280;33476;50.984;3.538;2022-08-14T08:06:00;100814.63;;;28.20;34.33
47716;BME280;33476;50.984;3.538;2022-08-14T08:08:26;100816.38;;;28.28;33.26
47716;BME280;33476;50.984;3.538;2022-08-14T08:10:55;100814.53;;;28.28;33.36
47716;BME280;33476;50.984;3.538;2022-08-14T08:13:20;100820.22;;;28.34;34.72
47716;BME280;33476;50.984;3.538;2022-08-14T08:15:48;100814.09;;;28.40;34.39
47716;BME280;33476;50.984;3.538;2022-08-14T08:18:15;100821.34;;;28.46;34.88
47716;BME280;33476;50.984;3.538;2022-08-14T08:20:46;100807.38;;;28.50;34.28
47716;BME280;33476;50.984;3.538;2022-08-14T08:23:13;100802.91;;;28.58;33.92
47716;BME280;33476;50.984;3.538;2022-08-14T08:25:41;100797.41;;;28.66;34.35
47716;BME280;33476;50.984;3.538;2022-08-14T08:28:14;100795.63;;;28.73;33.75
47716;BME280;33476;50.984;3.538;2022-08-14T08:30:48;100787.66;;;28.86;33.99
47716;BME280;33476;50.984;3.538;2022-08-14T08:33:14;100798.50;;;28.93;33.73
47716;BME280;33476;50.984;3.538;2022-08-14T08:35:41;100790.50;;;28.99;33.26
47716;BME280;33476;50.984;3.538;2022-08-14T08:38:09;100796.16;;;29.11;33.15
47716;BME280;33476;50.984;3.538;2022-08-14T08:40:37;100784.00;;;29.15;31.62
47716;BME280;33476;50.984;3.538;2022-08-14T08:43:07;100784.22;;;29.20;31.29
47716;BME280;33476;50.984;3.538;2022-08-14T08:45:34;100789.44;;;29.22;31.03
47716;BME280;33476;50.984;3.538;2022-08-14T08:48:01;100787.78;;;29.27;31.26
47716;BME280;33476;50.984;3.538;2022-08-14T08:50:28;100785.34;;;29.32;30.64
47716;BME280;33476;50.984;3.538;2022-08-14T08:52:55;100789.34;;;29.43;30.61
47716;BME280;33476;50.984;3.538;2022-08-14T08:55:36;100783.25;;;29.56;30.90
47716;BME280;33476;50.984;3.538;2022-08-14T08:58:07;100787.50;;;29.72;30.66
47716;BME280;33476;50.984;3.538;2022-08-14T09:00:34;100775.72;;;29.79;30.11
47716;BME280;33476;50.984;3.538;2022-08-14T09:03:07;100779.88;;;29.82;29.94
47716;BME280;33476;50.984;3.538;2022-08-14T09:06:08;100775.56;;;29.87;29.34
47716;BME280;33476;50.984;3.538;2022-08-14T09:08:35;100779.34;;;30.06;29.87
47716;BME280;33476;50.984;3.538;2022-08-14T09:11:04;100770.66;;;30.11;28.93
47716;BME280;33476;50.984;3.538;2022-08-14T09:13:30;100773.38;;;30.17;28.22
47716;BME280;33476;50.984;3.538;2022-08-14T09:15:56;100777.16;;;30.23;27.71
47716;BME280;33476;50.984;3.538;2022-08-14T09:18:22;100770.94;;;30.23;27.39
47716;BME280;33476;50.984;3.538;2022-08-14T09:20:50;100764.72;;;30.22;27.06
47716;BME280;33476;50.984;3.538;2022-08-14T09:23:16;100764.53;;;30.30;27.10
47716;BME280;33476;50.984;3.538;2022-08-14T09:25:43;100761.00;;;30.43;27.86
47716;BME280;33476;50.984;3.538;2022-08-14T09:28:10;100754.59;;;30.57;27.66
47716;BME280;33476;50.984;3.538;2022-08-14T09:30:42;100744.88;;;30.69;27.33
47716;BME280;33476;50.984;3.538;2022-08-14T09:33:24;100749.47;;;30.82;26.97
47716;BME280;33476;50.984;3.538;2022-08-14T09:36:02;100745.28;;;30.99;27.29
47716;BME280;33476;50.984;3.538;2022-08-14T09:46:11;100739.25;;;31.37;26.68
47716;BME280;33476;50.984;3.538;2022-08-14T09:48:37;100735.50;;;31.38;26.74
47716;BME280;33476;50.984;3.538;2022-08-14T09:51:05;100734.84;;;31.43;26.12
47716;BME280;33476;50.984;3.538;2022-08-14T09:56:03;100724.47;;;31.53;26.39
47716;BME280;33476;50.984;3.538;2022-08-14T09:58:38;100730.72;;;31.47;26.41
47716;BME280;33476;50.984;3.538;2022-08-14T10:01:12;100733.41;;;31.47;26.36
47716;BME280;33476;50.984;3.538;2022-08-14T10:06:15;100736.72;;;31.49;25.71
47716;BME280;33476;50.984;3.538;2022-08-14T10:08:48;100739.03;;;31.45;26.18
47716;BME280;33476;50.984;3.538;2022-08-14T10:11:22;100732.59;;;31.40;25.96
47716;BME280;33476;50.984;3.538;2022-08-14T10:13:51;100718.50;;;31.38;25.70
47716;BME280;33476;50.984;3.538;2022-08-14T10:16:25;100709.97;;;31.34;25.83
47716;BME280;33476;50.984;3.538;2022-08-14T10:19:05;100712.50;;;31.29;26.03
47716;BME280;33476;50.984;3.538;2022-08-14T10:21:31;100713.31;;;31.29;26.04
47716;BME280;33476;50.984;3.538;2022-08-14T10:23:57;100716.84;;;31.30;25.76
47716;BME280;33476;50.984;3.538;2022-08-14T10:26:22;100717.69;;;31.30;26.18
47716;BME280;33476;50.984;3.538;2022-08-14T10:28:51;100715.81;;;31.24;25.80
47716;BME280;33476;50.984;3.538;2022-08-14T10:31:25;100712.50;;;31.16;25.99
47716;BME280;33476;50.984;3.538;2022-08-14T10:36:41;100706.66;;;31.19;26.58
47716;BME280;33476;50.984;3.538;2022-08-14T10:39:27;100704.19;;;31.24;26.27
47716;BME280;33476;50.984;3.538;2022-08-14T10:42:01;100699.19;;;31.34;25.74
47716;BME280;33476;50.984;3.538;2022-08-14T10:44:43;100690.03;;;31.35;25.78
47716;BME280;33476;50.984;3.538;2022-08-14T10:47:13;100687.94;;;31.44;26.04
47716;BME280;33476;50.984;3.538;2022-08-14T10:49:42;100676.47;;;31.55;25.35
47716;BME280;33476;50.984;3.538;2022-08-14T10:52:20;100668.56;;;31.60;25.31
47716;BME280;33476;50.984;3.538;2022-08-14T10:54:47;100667.66;;;31.73;25.03
47716;BME280;33476;50.984;3.538;2022-08-14T11:02:36;100659.94;;;31.83;23.42
47716;BME280;33476;50.984;3.538;2022-08-14T11:05:09;100648.66;;;31.93;23.32
47716;BME280;33476;50.984;3.538;2022-08-14T11:07:58;100649.50;;;31.93;22.76
47716;BME280;33476;50.984;3.538;2022-08-14T11:10:40;100638.28;;;31.96;23.08
47716;BME280;33476;50.984;3.538;2022-08-14T11:13:07;100641.91;;;32.08;23.28
47716;BME280;33476;50.984;3.538;2022-08-14T11:15:33;100627.16;;;32.11;21.95
47716;BME280;33476;50.984;3.538;2022-08-14T11:17:59;100632.47;;;32.18;22.49
47716;BME280;33476;50.984;3.538;2022-08-14T11:20:26;100634.28;;;32.30;23.31
47716;BME280;33476;50.984;3.538;2022-08-14T11:22:55;100634.84;;;32.39;22.47
47716;BME280;33476;50.984;3.538;2022-08-14T11:25:22;100631.69;;;32.42;21.94
47716;BME280;33476;50.984;3.538;2022-08-14T11:27:50;100626.06;;;32.43;21.27
47716;BME280;33476;50.984;3.538;2022-08-14T11:30:21;100631.28;;;32.45;21.67
47716;BME280;33476;50.984;3.538;2022-08-14T11:32:48;100628.47;;;32.52;21.21
47716;BME280;33476;50.984;3.538;2022-08-14T11:35:22;100621.66;;;32.49;20.66
47716;BME280;33476;50.984;3.538;2022-08-14T11:37:55;100616.94;;;32.45;20.44
47716;BME280;33476;50.984;3.538;2022-08-14T11:40:23;100626.84;;;32.51;21.05
47716;BME280;33476;50.984;3.538;2022-08-14T11:42:51;100627.59;;;32.58;20.46
47716;BME280;33476;50.984;3.538;2022-08-14T11:45:28;100621.59;;;32.56;20.14
47716;BME280;33476;50.984;3.538;2022-08-14T11:48:00;100618.84;;;32.62;20.21
47716;BME280;33476;50.984;3.538;2022-08-14T11:50:32;100618.59;;;32.64;20.35
47716;BME280;33476;50.984;3.538;2022-08-14T11:52:58;100613.28;;;32.76;19.87
47716;BME280;33476;50.984;3.538;2022-08-14T11:55:31;100609.69;;;32.82;19.63
47716;BME280;33476;50.984;3.538;2022-08-14T11:58:02;100603.63;;;32.86;19.69
47716;BME280;33476;50.984;3.538;2022-08-14T12:00:28;100604.38;;;32.93;19.88
47716;BME280;33476;50.984;3.538;2022-08-14T12:03:00;100597.69;;;32.96;20.18
47716;BME280;33476;50.984;3.538;2022-08-14T12:05:33;100603.69;;;32.98;19.93
47716;BME280;33476;50.984;3.538;2022-08-14T12:08:01;100601.47;;;32.95;19.75
47716;BME280;33476;50.984;3.538;2022-08-14T12:10:27;100602.88;;;32.97;19.73
47716;BME280;33476;50.984;3.538;2022-08-14T12:12:54;100597.81;;;33.01;19.69
47716;BME280;33476;50.984;3.538;2022-08-14T12:15:57;100597.16;;;33.06;20.22
47716;BME280;33476;50.984;3.538;2022-08-14T12:20:57;100599.25;;;33.40;19.85
47716;BME280;33476;50.984;3.538;2022-08-14T12:23:24;100590.34;;;33.51;20.17
47716;BME280;33476;50.984;3.538;2022-08-14T12:26:07;100586.25;;;33.61;19.98
47716;BME280;33476;50.984;3.538;2022-08-14T12:28:35;100591.72;;;33.72;19.72
47716;BME280;33476;50.984;3.538;2022-08-14T12:31:17;100589.47;;;33.69;19.58
47716;BME280;33476;50.984;3.538;2022-08-14T12:34:05;100593.44;;;33.67;18.73
47716;BME280;33476;50.984;3.538;2022-08-14T12:36:32;100586.63;;;33.76;18.75
47716;BME280;33476;50.984;3.538;2022-08-14T12:38:59;100578.19;;;33.84;18.31
47716;BME280;33476;50.984;3.538;2022-08-14T12:41:27;100573.91;;;33.95;17.93
47716;BME280;33476;50.984;3.538;2022-08-14T12:43:59;100570.69;;;33.98;18.37
47716;BME280;33476;50.984;3.538;2022-08-14T12:46:30;100576.59;;;34.06;18.74
47716;BME280;33476;50.984;3.538;2022-08-14T12:49:16;100569.19;;;34.14;18.18
47716;BME280;33476;50.984;3.538;2022-08-14T12:51:53;100573.78;;;34.25;18.02
47716;BME280;33476;50.984;3.538;2022-08-14T12:54:19;100574.03;;;34.23;18.11
47716;BME280;33476;50.984;3.538;2022-08-14T12:56:45;100579.56;;;34.17;17.64
47716;BME280;33476;50.984;3.538;2022-08-14T12:59:12;100563.44;;;34.22;17.58
47716;BME280;33476;50.984;3.538;2022-08-14T13:01:38;100561.06;;;34.37;18.28
47716;BME280;33476;50.984;3.538;2022-08-14T13:04:14;100555.41;;;34.50;17.68
47716;BME280;33476;50.984;3.538;2022-08-14T13:06:42;100548.81;;;34.58;18.18
47716;BME280;33476;50.984;3.538;2022-08-14T13:09:10;100550.44;;;34.59;17.96
47716;BME280;33476;50.984;3.538;2022-08-14T13:11:41;100557.31;;;34.61;18.31
47716;BME280;33476;50.984;3.538;2022-08-14T13:14:09;100551.16;;;34.66;17.55
47716;BME280;33476;50.984;3.538;2022-08-14T13:16:37;100551.97;;;34.67;17.51
47716;BME280;33476;50.984;3.538;2022-08-14T13:19:02;100554.69;;;34.67;17.52
47716;BME280;33476;50.984;3.538;2022-08-14T13:21:28;100547.97;;;34.69;17.59
47716;BME280;33476;50.984;3.538;2022-08-14T13:23:54;100553.28;;;34.64;17.73
47716;BME280;33476;50.984;3.538;2022-08-14T13:26:23;100545.28;;;34.57;17.94